sensor_id;sensor_type;location;lat;lon;timestamp;P1;durP1;ratioP1;P2;durP2;ratioP2
31760;SDS011;18335;51.486;7.562;2023-07-20T00:01:34;9.90;;;6.03;;
31760;SDS011;18335;51.486;7.562;2023-07-20T00:04:00;13.73;;;7.00;;
31760;SDS011;18335;51.486;7.562;2023-07-20T00:06:27;9.75;;;5.88;;
31760;SDS011;18335;51.486;7.562;2023-07-20T00:08:54;11.55;;;6.35;;
31760;SDS011;18335;51.486;7.562;2023-07-20T00:11:25;15.20;;;7.07;;
31760;SDS011;18335;51.486;7.562;2023-07-20T00:13:53;12.13;;;6.15;;
31760;SDS011;18335;51.486;7.562;2023-07-20T00:16:20;12.20;;;6.55;;
31760;SDS011;18335;51.486;7.562;2023-07-20T00:18:48;9.57;;;5.38;;
31760;SDS011;18335;51.486;7.562;2023-07-20T00:21:15;13.23;;;6.63;;
31760;SDS011;18335;51.486;7.562;2023-07-20T00:23:42;11.27;;;6.07;;
31760;SDS011;18335;51.486;7.562;2023-07-20T00:26:08;12.77;;;5.82;;
31760;SDS011;18335;51.486;7.562;2023-07-20T00:28:35;13.18;;;6.55;;
31760;SDS011;18335;51.486;7.562;2023-07-20T00:31:02;9.98;;;6.13;;
31760;SDS011;18335;51.486;7.562;2023-07-20T00:33:29;12.32;;;6.80;;
31760;SDS011;18335;51.486;7.562;2023-07-20T00:35:57;9.70;;;5.80;;
31760;SDS011;18335;51.486;7.562;2023-07-20T00:38:24;12.57;;;7.63;;
31760;SDS011;18335;51.486;7.562;2023-07-20T00:40:51;11.75;;;6.65;;
31760;SDS011;18335;51.486;7.562;2023-07-20T00:43:18;15.40;;;7.38;;
31760;SDS011;18335;51.486;7.562;2023-07-20T00:45:45;14.07;;;7.32;;
31760;SDS011;18335;51.486;7.562;2023-07-20T00:48:11;12.25;;;7.18;;
31760;SDS011;18335;51.486;7.562;2023-07-20T00:50:39;12.70;;;8.15;;
31760;SDS011;18335;51.486;7.562;2023-07-20T00:53:09;15.13;;;8.57;;
31760;SDS011;18335;51.486;7.562;2023-07-20T00:55:36;14.40;;;7.82;;
31760;SDS011;18335;51.486;7.562;2023-07-20T00:58:03;10.80;;;7.13;;
31760;SDS011;18335;51.486;7.562;2023-07-20T01:00:30;14.55;;;8.00;;
31760;SDS011;18335;51.486;7.562;2023-07-20T01:02:57;13.63;;;7.43;;
31760;SDS011;18335;51.486;7.562;2023-07-20T01:05:29;16.27;;;7.40;;
31760;SDS011;18335;51.486;7.562;2023-07-20T01:08:07;15.52;;;7.75;;
31760;SDS011;18335;51.486;7.562;2023-07-20T01:10:39;15.15;;;7.80;;
31760;SDS011;18335;51.486;7.562;2023-07-20T01:13:10;15.20;;;7.10;;
31760;SDS011;18335;51.486;7.562;2023-07-20T01:15:40;12.00;;;6.57;;
31760;SDS011;18335;51.486;7.562;2023-07-20T01:18:07;15.80;;;7.20;;
31760;SDS011;18335;51.486;7.562;2023-07-20T01:20:34;12.95;;;7.45;;
31760;SDS011;18335;51.486;7.562;2023-07-20T01:23:10;14.25;;;7.38;;
31760;SDS011;18335;51.486;7.562;2023-07-20T01:25:58;14.27;;;7.22;;
31760;SDS011;18335;51.486;7.562;2023-07-20T01:28:56;12.32;;;7.32;;
31760;SDS011;18335;51.486;7.562;2023-07-20T01:31:36;15.85;;;8.10;;
31760;SDS011;18335;51.486;7.562;2023-07-20T01:34:04;15.27;;;7.82;;
31760;SDS011;18335;51.486;7.562;2023-07-20T01:36:35;11.10;;;7.05;;
31760;SDS011;18335;51.486;7.562;2023-07-20T01:39:04;11.88;;;6.90;;
31760;SDS011;18335;51.486;7.562;2023-07-20T01:41:32;12.02;;;6.22;;
31760;SDS011;18335;51.486;7.562;2023-07-20T01:44:00;11.88;;;6.95;;
31760;SDS011;18335;51.486;7.562;2023-07-20T01:46:27;13.38;;;7.38;;
31760;SDS011;18335;51.486;7.562;2023-07-20T01:48:55;12.13;;;7.00;;
31760;SDS011;18335;51.486;7.562;2023-07-20T01:51:22;12.70;;;7.30;;
31760;SDS011;18335;51.486;7.562;2023-07-20T01:53:49;16.02;;;8.02;;
31760;SDS011;18335;51.486;7.562;2023-07-20T01:56:16;12.93;;;8.45;;
31760;SDS011;18335;51.486;7.562;2023-07-20T01:58:43;15.88;;;8.10;;
31760;SDS011;18335;51.486;7.562;2023-07-20T02:01:09;13.30;;;7.50;;
31760;SDS011;18335;51.486;7.562;2023-07-20T02:03:36;14.15;;;7.88;;
31760;SDS011;18335;51.486;7.562;2023-07-20T02:06:07;14.88;;;9.38;;
31760;SDS011;18335;51.486;7.562;2023-07-20T02:08:33;17.33;;;8.48;;
31760;SDS011;18335;51.486;7.562;2023-07-20T02:11:01;15.43;;;8.15;;
31760;SDS011;18335;51.486;7.562;2023-07-20T02:13:27;13.02;;;8.65;;
31760;SDS011;18335;51.486;7.562;2023-07-20T02:15:54;20.65;;;8.50;;
31760;SDS011;18335;51.486;7.562;2023-07-20T02:18:21;14.48;;;9.25;;
31760;SDS011;18335;51.486;7.562;2023-07-20T02:20:47;14.27;;;8.18;;
31760;SDS011;18335;51.486;7.562;2023-07-20T02:23:16;15.52;;;8.50;;
31760;SDS011;18335;51.486;7.562;2023-07-20T02:25:43;15.00;;;8.25;;
31760;SDS011;18335;51.486;7.562;2023-07-20T02:28:10;14.32;;;9.38;;
31760;SDS011;18335;51.486;7.562;2023-07-20T02:30:39;14.07;;;8.38;;
31760;SDS011;18335;51.486;7.562;2023-07-20T02:33:06;16.77;;;9.93;;
31760;SDS011;18335;51.486;7.562;2023-07-20T02:35:34;15.10;;;8.60;;
31760;SDS011;18335;51.486;7.562;2023-07-20T02:38:00;17.85;;;9.57;;
31760;SDS011;18335;51.486;7.562;2023-07-20T02:40:28;16.33;;;9.00;;
31760;SDS011;18335;51.486;7.562;2023-07-20T02:42:55;14.35;;;9.35;;
31760;SDS011;18335;51.486;7.562;2023-07-20T02:45:22;16.88;;;9.57;;
31760;SDS011;18335;51.486;7.562;2023-07-20T02:47:49;17.30;;;9.82;;
31760;SDS011;18335;51.486;7.562;2023-07-20T02:50:17;17.88;;;9.70;;
31760;SDS011;18335;51.486;7.562;2023-07-20T02:52:44;14.98;;;9.57;;
31760;SDS011;18335;51.486;7.562;2023-07-20T02:55:11;14.07;;;9.88;;
31760;SDS011;18335;51.486;7.562;2023-07-20T02:57:39;18.60;;;10.15;;
31760;SDS011;18335;51.486;7.562;2023-07-20T03:00:07;15.68;;;9.45;;
31760;SDS011;18335;51.486;7.562;2023-07-20T03:02:35;15.52;;;10.02;;
31760;SDS011;18335;51.486;7.562;2023-07-20T03:05:02;17.73;;;10.88;;
31760;SDS011;18335;51.486;7.562;2023-07-20T03:07:32;16.70;;;9.45;;
31760;SDS011;18335;51.486;7.562;2023-07-20T03:09:59;20.05;;;10.80;;
31760;SDS011;18335;51.486;7.562;2023-07-20T03:12:26;19.92;;;9.95;;
31760;SDS011;18335;51.486;7.562;2023-07-20T03:14:54;17.42;;;9.05;;
31760;SDS011;18335;51.486;7.562;2023-07-20T03:17:22;15.90;;;9.52;;
31760;SDS011;18335;51.486;7.562;2023-07-20T03:19:50;17.08;;;9.90;;
31760;SDS011;18335;51.486;7.562;2023-07-20T03:22:16;16.67;;;9.95;;
31760;SDS011;18335;51.486;7.562;2023-07-20T03:24:43;22.05;;;10.73;;
31760;SDS011;18335;51.486;7.562;2023-07-20T03:27:10;17.17;;;10.07;;
31760;SDS011;18335;51.486;7.562;2023-07-20T03:29:37;15.00;;;8.77;;
31760;SDS011;18335;51.486;7.562;2023-07-20T03:32:06;16.63;;;10.50;;
31760;SDS011;18335;51.486;7.562;2023-07-20T03:34:33;20.58;;;10.27;;
31760;SDS011;18335;51.486;7.562;2023-07-20T03:37:00;17.35;;;10.18;;
31760;SDS011;18335;51.486;7.562;2023-07-20T03:39:29;17.60;;;10.10;;
31760;SDS011;18335;51.486;7.562;2023-07-20T03:41:57;18.73;;;9.63;;
31760;SDS011;18335;51.486;7.562;2023-07-20T03:44:24;19.17;;;9.93;;
31760;SDS011;18335;51.486;7.562;2023-07-20T03:46:51;17.73;;;10.05;;
31760;SDS011;18335;51.486;7.562;2023-07-20T03:49:19;20.40;;;10.27;;
31760;SDS011;18335;51.486;7.562;2023-07-20T03:51:46;17.20;;;9.93;;
31760;SDS011;18335;51.486;7.562;2023-07-20T03:54:12;17.15;;;9.88;;
31760;SDS011;18335;51.486;7.562;2023-07-20T03:56:39;15.93;;;8.35;;
31760;SDS011;18335;51.486;7.562;2023-07-20T03:59:06;16.30;;;8.55;;
31760;SDS011;18335;51.486;7.562;2023-07-20T04:01:32;15.10;;;8.80;;
31760;SDS011;18335;51.486;7.562;2023-07-20T04:04:02;17.40;;;8.80;;
31760;SDS011;18335;51.486;7.562;2023-07-20T04:06:32;13.52;;;8.05;;
31760;SDS011;18335;51.486;7.562;2023-07-20T04:08:59;16.52;;;8.70;;
31760;SDS011;18335;51.486;7.562;2023-07-20T04:11:25;16.73;;;8.50;;
31760;SDS011;18335;51.486;7.562;2023-07-20T04:13:52;19.30;;;8.95;;
31760;SDS011;18335;51.486;7.562;2023-07-20T04:16:19;15.85;;;8.70;;
31760;SDS011;18335;51.486;7.562;2023-07-20T04:18:46;15.38;;;9.57;;
31760;SDS011;18335;51.486;7.562;2023-07-20T04:21:13;13.90;;;9.15;;
31760;SDS011;18335;51.486;7.562;2023-07-20T04:23:41;19.13;;;10.18;;
31760;SDS011;18335;51.486;7.562;2023-07-20T04:26:08;15.77;;;11.00;;
31760;SDS011;18335;51.486;7.562;2023-07-20T04:28:35;17.33;;;10.05;;
31760;SDS011;18335;51.486;7.562;2023-07-20T04:31:11;17.75;;;10.60;;
31760;SDS011;18335;51.486;7.562;2023-07-20T04:33:38;18.27;;;10.25;;
31760;SDS011;18335;51.486;7.562;2023-07-20T04:36:06;15.02;;;10.23;;
31760;SDS011;18335;51.486;7.562;2023-07-20T04:38:34;16.27;;;10.25;;
31760;SDS011;18335;51.486;7.562;2023-07-20T04:41:13;16.90;;;10.48;;
31760;SDS011;18335;51.486;7.562;2023-07-20T04:43:43;17.55;;;12.00;;
31760;SDS011;18335;51.486;7.562;2023-07-20T04:46:13;18.90;;;12.30;;
31760;SDS011;18335;51.486;7.562;2023-07-20T04:48:41;22.00;;;12.77;;
31760;SDS011;18335;51.486;7.562;2023-07-20T04:51:08;23.17;;;13.60;;
31760;SDS011;18335;51.486;7.562;2023-07-20T04:53:35;17.98;;;12.77;;
31760;SDS011;18335;51.486;7.562;2023-07-20T04:56:03;19.75;;;13.68;;
31760;SDS011;18335;51.486;7.562;2023-07-20T04:58:31;22.20;;;13.50;;
31760;SDS011;18335;51.486;7.562;2023-07-20T05:00:58;19.65;;;13.05;;
31760;SDS011;18335;51.486;7.562;2023-07-20T05:03:25;19.95;;;14.23;;
31760;SDS011;18335;51.486;7.562;2023-07-20T05:05:52;25.20;;;15.25;;
31760;SDS011;18335;51.486;7.562;2023-07-20T05:08:19;23.45;;;15.18;;
31760;SDS011;18335;51.486;7.562;2023-07-20T05:10:47;19.95;;;14.23;;
31760;SDS011;18335;51.486;7.562;2023-07-20T05:13:15;20.25;;;13.75;;
31760;SDS011;18335;51.486;7.562;2023-07-20T05:15:43;20.70;;;13.82;;
31760;SDS011;18335;51.486;7.562;2023-07-20T05:18:13;17.98;;;12.48;;
31760;SDS011;18335;51.486;7.562;2023-07-20T05:20:45;17.90;;;12.82;;
31760;SDS011;18335;51.486;7.562;2023-07-20T05:23:12;17.50;;;12.70;;
31760;SDS011;18335;51.486;7.562;2023-07-20T05:25:39;18.52;;;12.63;;
31760;SDS011;18335;51.486;7.562;2023-07-20T05:28:06;20.20;;;12.23;;
31760;SDS011;18335;51.486;7.562;2023-07-20T05:30:32;16.55;;;10.88;;
31760;SDS011;18335;51.486;7.562;2023-07-20T05:33:00;18.75;;;10.57;;
31760;SDS011;18335;51.486;7.562;2023-07-20T05:35:27;14.93;;;10.60;;
31760;SDS011;18335;51.486;7.562;2023-07-20T05:37:54;14.35;;;9.98;;
31760;SDS011;18335;51.486;7.562;2023-07-20T05:40:21;14.55;;;10.48;;
31760;SDS011;18335;51.486;7.562;2023-07-20T05:42:48;15.93;;;9.38;;
31760;SDS011;18335;51.486;7.562;2023-07-20T05:45:17;15.43;;;8.93;;
31760;SDS011;18335;51.486;7.562;2023-07-20T05:47:44;13.85;;;8.75;;
31760;SDS011;18335;51.486;7.562;2023-07-20T05:50:12;14.13;;;8.75;;
31760;SDS011;18335;51.486;7.562;2023-07-20T05:52:39;11.68;;;7.78;;
31760;SDS011;18335;51.486;7.562;2023-07-20T05:55:06;11.63;;;7.18;;
31760;SDS011;18335;51.486;7.562;2023-07-20T05:57:34;11.77;;;7.13;;
31760;SDS011;18335;51.486;7.562;2023-07-20T06:00:05;10.95;;;7.30;;
31760;SDS011;18335;51.486;7.562;2023-07-20T06:02:38;12.13;;;7.43;;
31760;SDS011;18335;51.486;7.562;2023-07-20T06:05:06;13.02;;;8.25;;
31760;SDS011;18335;51.486;7.562;2023-07-20T06:07:36;13.18;;;7.90;;
31760;SDS011;18335;51.486;7.562;2023-07-20T06:10:03;10.55;;;6.80;;
31760;SDS011;18335;51.486;7.562;2023-07-20T06:12:31;10.80;;;5.90;;
31760;SDS011;18335;51.486;7.562;2023-07-20T06:15:01;11.00;;;7.50;;
31760;SDS011;18335;51.486;7.562;2023-07-20T06:17:28;11.45;;;7.07;;
31760;SDS011;18335;51.486;7.562;2023-07-20T06:19:55;11.18;;;7.47;;
31760;SDS011;18335;51.486;7.562;2023-07-20T06:22:22;12.52;;;7.07;;
31760;SDS011;18335;51.486;7.562;2023-07-20T06:24:50;12.30;;;6.90;;
31760;SDS011;18335;51.486;7.562;2023-07-20T06:27:17;9.05;;;5.90;;
31760;SDS011;18335;51.486;7.562;2023-07-20T06:29:43;13.77;;;7.30;;
31760;SDS011;18335;51.486;7.562;2023-07-20T06:32:10;12.65;;;8.02;;
31760;SDS011;18335;51.486;7.562;2023-07-20T06:34:37;11.95;;;7.45;;
31760;SDS011;18335;51.486;7.562;2023-07-20T06:37:04;12.65;;;8.27;;
31760;SDS011;18335;51.486;7.562;2023-07-20T06:39:31;12.15;;;7.55;;
31760;SDS011;18335;51.486;7.562;2023-07-20T06:42:00;13.85;;;7.18;;
31760;SDS011;18335;51.486;7.562;2023-07-20T06:44:26;11.38;;;6.60;;
31760;SDS011;18335;51.486;7.562;2023-07-20T06:46:53;12.73;;;7.80;;
31760;SDS011;18335;51.486;7.562;2023-07-20T06:49:26;11.32;;;7.65;;
31760;SDS011;18335;51.486;7.562;2023-07-20T06:51:53;10.93;;;7.93;;
31760;SDS011;18335;51.486;7.562;2023-07-20T06:54:20;10.98;;;6.85;;
31760;SDS011;18335;51.486;7.562;2023-07-20T06:56:46;11.30;;;7.90;;
31760;SDS011;18335;51.486;7.562;2023-07-20T06:59:15;12.15;;;7.30;;
31760;SDS011;18335;51.486;7.562;2023-07-20T07:01:41;11.95;;;6.85;;
31760;SDS011;18335;51.486;7.562;2023-07-20T07:04:08;11.00;;;7.15;;
31760;SDS011;18335;51.486;7.562;2023-07-20T07:06:35;11.30;;;6.68;;
31760;SDS011;18335;51.486;7.562;2023-07-20T07:09:02;9.35;;;6.22;;
31760;SDS011;18335;51.486;7.562;2023-07-20T07:11:29;9.60;;;5.88;;
31760;SDS011;18335;51.486;7.562;2023-07-20T07:13:56;9.20;;;5.10;;
31760;SDS011;18335;51.486;7.562;2023-07-20T07:16:24;9.30;;;5.97;;
31760;SDS011;18335;51.486;7.562;2023-07-20T07:18:50;13.32;;;6.47;;
31760;SDS011;18335;51.486;7.562;2023-07-20T07:21:17;12.52;;;6.68;;
31760;SDS011;18335;51.486;7.562;2023-07-20T07:23:44;11.30;;;7.72;;
31760;SDS011;18335;51.486;7.562;2023-07-20T07:26:12;10.68;;;6.97;;
31760;SDS011;18335;51.486;7.562;2023-07-20T07:28:39;15.18;;;8.93;;
31760;SDS011;18335;51.486;7.562;2023-07-20T07:31:06;11.85;;;8.13;;
31760;SDS011;18335;51.486;7.562;2023-07-20T07:33:34;9.95;;;6.85;;
31760;SDS011;18335;51.486;7.562;2023-07-20T07:36:01;11.30;;;8.15;;
31760;SDS011;18335;51.486;7.562;2023-07-20T07:38:27;13.27;;;8.25;;
31760;SDS011;18335;51.486;7.562;2023-07-20T07:40:54;12.20;;;9.10;;
31760;SDS011;18335;51.486;7.562;2023-07-20T07:43:21;14.43;;;7.97;;
31760;SDS011;18335;51.486;7.562;2023-07-20T07:45:48;10.23;;;6.68;;
31760;SDS011;18335;51.486;7.562;2023-07-20T07:48:15;13.07;;;8.80;;
31760;SDS011;18335;51.486;7.562;2023-07-20T07:50:43;13.65;;;8.45;;
31760;SDS011;18335;51.486;7.562;2023-07-20T07:53:10;9.77;;;6.57;;
31760;SDS011;18335;51.486;7.562;2023-07-20T07:55:37;9.10;;;5.78;;
31760;SDS011;18335;51.486;7.562;2023-07-20T07:58:04;6.68;;;3.88;;
31760;SDS011;18335;51.486;7.562;2023-07-20T08:00:30;8.88;;;4.90;;
31760;SDS011;18335;51.486;7.562;2023-07-20T08:02:57;7.28;;;4.05;;
31760;SDS011;18335;51.486;7.562;2023-07-20T08:05:24;7.93;;;3.70;;
31760;SDS011;18335;51.486;7.562;2023-07-20T08:07:53;8.10;;;4.40;;
31760;SDS011;18335;51.486;7.562;2023-07-20T08:10:19;7.15;;;3.33;;
31760;SDS011;18335;51.486;7.562;2023-07-20T08:12:46;5.20;;;3.03;;
31760;SDS011;18335;51.486;7.562;2023-07-20T08:15:13;7.25;;;3.50;;
31760;SDS011;18335;51.486;7.562;2023-07-20T08:17:40;10.65;;;6.65;;
31760;SDS011;18335;51.486;7.562;2023-07-20T08:20:09;13.77;;;9.52;;
31760;SDS011;18335;51.486;7.562;2023-07-20T08:22:37;13.57;;;8.98;;
31760;SDS011;18335;51.486;7.562;2023-07-20T08:25:06;12.88;;;8.98;;
31760;SDS011;18335;51.486;7.562;2023-07-20T08:27:33;10.57;;;7.50;;
31760;SDS011;18335;51.486;7.562;2023-07-20T08:30:00;10.65;;;6.43;;
31760;SDS011;18335;51.486;7.562;2023-07-20T08:32:27;8.32;;;4.85;;
31760;SDS011;18335;51.486;7.562;2023-07-20T08:34:54;6.95;;;3.83;;
31760;SDS011;18335;51.486;7.562;2023-07-20T08:37:21;4.90;;;2.70;;
31760;SDS011;18335;51.486;7.562;2023-07-20T08:39:49;5.80;;;2.65;;
31760;SDS011;18335;51.486;7.562;2023-07-20T08:42:17;5.38;;;2.83;;
31760;SDS011;18335;51.486;7.562;2023-07-20T08:44:43;6.60;;;2.75;;
31760;SDS011;18335;51.486;7.562;2023-07-20T08:47:13;4.28;;;2.08;;
31760;SDS011;18335;51.486;7.562;2023-07-20T08:49:42;6.93;;;2.58;;
31760;SDS011;18335;51.486;7.562;2023-07-20T08:52:09;4.25;;;2.60;;
31760;SDS011;18335;51.486;7.562;2023-07-20T08:54:37;10.77;;;3.15;;
31760;SDS011;18335;51.486;7.562;2023-07-20T08:57:04;6.93;;;3.72;;
31760;SDS011;18335;51.486;7.562;2023-07-20T08:59:34;5.65;;;2.83;;
31760;SDS011;18335;51.486;7.562;2023-07-20T09:02:03;5.00;;;3.08;;
31760;SDS011;18335;51.486;7.562;2023-07-20T09:04:32;4.93;;;2.70;;
31760;SDS011;18335;51.486;7.562;2023-07-20T09:06:58;3.88;;;2.08;;
31760;SDS011;18335;51.486;7.562;2023-07-20T09:09:26;6.63;;;2.30;;
31760;SDS011;18335;51.486;7.562;2023-07-20T09:11:52;6.72;;;2.20;;
31760;SDS011;18335;51.486;7.562;2023-07-20T09:14:19;3.28;;;1.05;;
31760;SDS011;18335;51.486;7.562;2023-07-20T09:16:52;4.90;;;1.88;;
31760;SDS011;18335;51.486;7.562;2023-07-20T09:19:19;3.72;;;1.25;;
31760;SDS011;18335;51.486;7.562;2023-07-20T09:21:47;3.03;;;1.30;;
31760;SDS011;18335;51.486;7.562;2023-07-20T09:24:15;6.22;;;1.70;;
31760;SDS011;18335;51.486;7.562;2023-07-20T09:26:43;4.93;;;1.90;;
31760;SDS011;18335;51.486;7.562;2023-07-20T09:29:13;5.03;;;2.10;;
31760;SDS011;18335;51.486;7.562;2023-07-20T09:31:40;3.25;;;1.85;;
31760;SDS011;18335;51.486;7.562;2023-07-20T09:34:08;2.40;;;1.42;;
31760;SDS011;18335;51.486;7.562;2023-07-20T09:36:36;2.88;;;1.75;;
31760;SDS011;18335;51.486;7.562;2023-07-20T09:39:03;2.90;;;1.45;;
31760;SDS011;18335;51.486;7.562;2023-07-20T09:41:30;2.35;;;1.15;;
31760;SDS011;18335;51.486;7.562;2023-07-20T09:44:06;1.45;;;0.95;;
31760;SDS011;18335;51.486;7.562;2023-07-20T09:46:41;3.05;;;0.90;;
31760;SDS011;18335;51.486;7.562;2023-07-20T09:49:10;3.97;;;0.95;;
31760;SDS011;18335;51.486;7.562;2023-07-20T09:51:37;2.85;;;0.75;;
31760;SDS011;18335;51.486;7.562;2023-07-20T09:54:04;1.25;;;0.60;;
31760;SDS011;18335;51.486;7.562;2023-07-20T09:56:32;1.95;;;0.98;;
31760;SDS011;18335;51.486;7.562;2023-07-20T09:58:59;0.75;;;0.52;;
31760;SDS011;18335;51.486;7.562;2023-07-20T10:01:26;1.42;;;0.50;;
31760;SDS011;18335;51.486;7.562;2023-07-20T10:03:56;1.45;;;0.90;;
31760;SDS011;18335;51.486;7.562;2023-07-20T10:06:28;0.75;;;0.47;;
31760;SDS011;18335;51.486;7.562;2023-07-20T10:09:01;1.23;;;0.63;;
31760;SDS011;18335;51.486;7.562;2023-07-20T10:11:29;1.00;;;0.70;;
31760;SDS011;18335;51.486;7.562;2023-07-20T10:14:02;0.80;;;0.57;;
31760;SDS011;18335;51.486;7.562;2023-07-20T10:16:31;2.70;;;0.73;;
31760;SDS011;18335;51.486;7.562;2023-07-20T10:19:02;0.65;;;0.60;;
31760;SDS011;18335;51.486;7.562;2023-07-20T10:21:33;1.65;;;0.70;;
31760;SDS011;18335;51.486;7.562;2023-07-20T10:24:04;2.60;;;0.82;;
31760;SDS011;18335;51.486;7.562;2023-07-20T10:26:32;1.40;;;0.55;;
31760;SDS011;18335;51.486;7.562;2023-07-20T10:29:00;1.50;;;0.80;;
31760;SDS011;18335;51.486;7.562;2023-07-20T10:31:28;0.45;;;0.40;;
31760;SDS011;18335;51.486;7.562;2023-07-20T10:33:56;1.10;;;0.55;;
31760;SDS011;18335;51.486;7.562;2023-07-20T10:36:24;2.22;;;0.50;;
31760;SDS011;18335;51.486;7.562;2023-07-20T10:38:54;1.90;;;0.88;;
31760;SDS011;18335;51.486;7.562;2023-07-20T10:41:22;0.80;;;0.60;;
31760;SDS011;18335;51.486;7.562;2023-07-20T10:43:57;1.08;;;0.70;;
31760;SDS011;18335;51.486;7.562;2023-07-20T10:46:41;1.30;;;0.80;;
31760;SDS011;18335;51.486;7.562;2023-07-20T10:49:10;1.30;;;0.75;;
31760;SDS011;18335;51.486;7.562;2023-07-20T10:51:41;2.65;;;1.02;;
31760;SDS011;18335;51.486;7.562;2023-07-20T10:57:28;2.00;;;0.70;;
31760;SDS011;18335;51.486;7.562;2023-07-20T11:00:09;3.85;;;1.35;;
31760;SDS011;18335;51.486;7.562;2023-07-20T11:02:44;1.58;;;0.80;;
31760;SDS011;18335;51.486;7.562;2023-07-20T11:07:58;1.77;;;0.90;;
31760;SDS011;18335;51.486;7.562;2023-07-20T11:10:26;4.55;;;1.35;;
31760;SDS011;18335;51.486;7.562;2023-07-20T11:15:46;2.50;;;0.88;;
31760;SDS011;18335;51.486;7.562;2023-07-20T11:18:14;2.45;;;1.00;;
31760;SDS011;18335;51.486;7.562;2023-07-20T11:20:41;2.80;;;0.90;;
31760;SDS011;18335;51.486;7.562;2023-07-20T11:23:09;1.67;;;0.77;;
31760;SDS011;18335;51.486;7.562;2023-07-20T11:25:38;2.10;;;0.80;;
31760;SDS011;18335;51.486;7.562;2023-07-20T11:28:08;3.50;;;1.23;;
31760;SDS011;18335;51.486;7.562;2023-07-20T11:30:36;4.45;;;1.00;;
31760;SDS011;18335;51.486;7.562;2023-07-20T11:33:03;2.75;;;0.90;;
31760;SDS011;18335;51.486;7.562;2023-07-20T11:35:30;4.00;;;0.95;;
31760;SDS011;18335;51.486;7.562;2023-07-20T11:38:02;1.75;;;1.20;;
31760;SDS011;18335;51.486;7.562;2023-07-20T11:40:28;2.90;;;1.10;;
31760;SDS011;18335;51.486;7.562;2023-07-20T11:42:57;1.10;;;0.90;;
31760;SDS011;18335;51.486;7.562;2023-07-20T11:45:23;4.05;;;1.15;;
31760;SDS011;18335;51.486;7.562;2023-07-20T11:47:52;1.73;;;0.90;;
31760;SDS011;18335;51.486;7.562;2023-07-20T11:50:19;4.15;;;1.20;;
31760;SDS011;18335;51.486;7.562;2023-07-20T11:52:46;2.13;;;0.90;;
31760;SDS011;18335;51.486;7.562;2023-07-20T11:55:13;2.85;;;1.40;;
31760;SDS011;18335;51.486;7.562;2023-07-20T11:57:40;2.60;;;1.00;;
31760;SDS011;18335;51.486;7.562;2023-07-20T12:00:09;2.00;;;1.23;;
31760;SDS011;18335;51.486;7.562;2023-07-20T12:02:37;4.20;;;1.02;;
31760;SDS011;18335;51.486;7.562;2023-07-20T12:05:05;6.75;;;1.33;;
31760;SDS011;18335;51.486;7.562;2023-07-20T12:07:34;4.60;;;1.55;;
31760;SDS011;18335;51.486;7.562;2023-07-20T12:10:05;2.83;;;0.90;;
31760;SDS011;18335;51.486;7.562;2023-07-20T12:12:33;2.72;;;1.02;;
31760;SDS011;18335;51.486;7.562;2023-07-20T12:15:14;2.22;;;1.10;;
31760;SDS011;18335;51.486;7.562;2023-07-20T12:17:43;2.03;;;1.20;;
31760;SDS011;18335;51.486;7.562;2023-07-20T12:20:10;2.00;;;1.20;;
31760;SDS011;18335;51.486;7.562;2023-07-20T12:22:39;1.88;;;1.20;;
31760;SDS011;18335;51.486;7.562;2023-07-20T12:25:06;3.63;;;1.50;;
31760;SDS011;18335;51.486;7.562;2023-07-20T12:27:35;2.95;;;1.13;;
31760;SDS011;18335;51.486;7.562;2023-07-20T12:30:03;1.67;;;1.20;;
31760;SDS011;18335;51.486;7.562;2023-07-20T12:32:32;1.85;;;1.25;;
31760;SDS011;18335;51.486;7.562;2023-07-20T12:34:59;2.78;;;1.15;;
31760;SDS011;18335;51.486;7.562;2023-07-20T12:37:26;4.03;;;1.40;;
31760;SDS011;18335;51.486;7.562;2023-07-20T12:39:53;2.55;;;1.23;;
31760;SDS011;18335;51.486;7.562;2023-07-20T12:42:20;3.53;;;1.42;;
31760;SDS011;18335;51.486;7.562;2023-07-20T12:44:48;2.83;;;1.50;;
31760;SDS011;18335;51.486;7.562;2023-07-20T12:47:15;2.58;;;1.27;;
31760;SDS011;18335;51.486;7.562;2023-07-20T12:49:44;2.75;;;1.23;;
31760;SDS011;18335;51.486;7.562;2023-07-20T12:52:12;3.38;;;1.25;;
31760;SDS011;18335;51.486;7.562;2023-07-20T12:54:38;2.17;;;1.00;;
31760;SDS011;18335;51.486;7.562;2023-07-20T12:57:05;1.20;;;1.00;;
31760;SDS011;18335;51.486;7.562;2023-07-20T12:59:32;4.32;;;1.30;;
31760;SDS011;18335;51.486;7.562;2023-07-20T13:01:59;1.75;;;1.08;;
31760;SDS011;18335;51.486;7.562;2023-07-20T13:04:26;1.17;;;1.08;;
31760;SDS011;18335;51.486;7.562;2023-07-20T13:06:55;3.13;;;1.20;;
31760;SDS011;18335;51.486;7.562;2023-07-20T13:09:23;3.55;;;1.23;;
31760;SDS011;18335;51.486;7.562;2023-07-20T13:11:50;1.85;;;1.05;;
31760;SDS011;18335;51.486;7.562;2023-07-20T13:14:17;2.05;;;1.20;;
31760;SDS011;18335;51.486;7.562;2023-07-20T13:16:44;2.00;;;1.05;;
31760;SDS011;18335;51.486;7.562;2023-07-20T13:19:11;1.35;;;1.00;;
31760;SDS011;18335;51.486;7.562;2023-07-20T13:21:38;1.20;;;0.80;;
31760;SDS011;18335;51.486;7.562;2023-07-20T13:24:06;1.38;;;0.70;;
31760;SDS011;18335;51.486;7.562;2023-07-20T13:26:33;1.58;;;1.05;;
31760;SDS011;18335;51.486;7.562;2023-07-20T13:29:00;2.20;;;0.90;;
31760;SDS011;18335;51.486;7.562;2023-07-20T13:31:28;1.60;;;1.02;;
31760;SDS011;18335;51.486;7.562;2023-07-20T13:33:55;1.10;;;0.80;;
31760;SDS011;18335;51.486;7.562;2023-07-20T13:36:22;3.13;;;0.80;;
31760;SDS011;18335;51.486;7.562;2023-07-20T13:38:49;1.88;;;0.88;;
31760;SDS011;18335;51.486;7.562;2023-07-20T13:41:17;1.40;;;0.77;;
31760;SDS011;18335;51.486;7.562;2023-07-20T13:43:44;2.67;;;0.77;;
31760;SDS011;18335;51.486;7.562;2023-07-20T13:46:10;1.15;;;0.93;;
31760;SDS011;18335;51.486;7.562;2023-07-20T13:48:37;1.48;;;0.90;;
31760;SDS011;18335;51.486;7.562;2023-07-20T13:51:04;1.77;;;0.95;;
31760;SDS011;18335;51.486;7.562;2023-07-20T13:53:31;1.42;;;0.85;;
31760;SDS011;18335;51.486;7.562;2023-07-20T13:55:58;2.30;;;1.10;;
31760;SDS011;18335;51.486;7.562;2023-07-20T13:58:26;1.10;;;0.80;;
31760;SDS011;18335;51.486;7.562;2023-07-20T14:00:53;3.08;;;1.20;;
31760;SDS011;18335;51.486;7.562;2023-07-20T14:03:20;1.98;;;0.90;;
31760;SDS011;18335;51.486;7.562;2023-07-20T14:05:47;2.80;;;1.23;;
31760;SDS011;18335;51.486;7.562;2023-07-20T14:08:14;2.55;;;1.15;;
31760;SDS011;18335;51.486;7.562;2023-07-20T14:10:40;1.67;;;0.93;;
31760;SDS011;18335;51.486;7.562;2023-07-20T14:13:07;2.30;;;1.20;;
31760;SDS011;18335;51.486;7.562;2023-07-20T14:15:35;1.60;;;0.90;;
31760;SDS011;18335;51.486;7.562;2023-07-20T14:18:02;2.22;;;1.10;;
31760;SDS011;18335;51.486;7.562;2023-07-20T14:20:29;3.33;;;1.08;;
31760;SDS011;18335;51.486;7.562;2023-07-20T14:22:56;3.60;;;1.40;;
31760;SDS011;18335;51.486;7.562;2023-07-20T14:25:23;1.95;;;1.20;;
31760;SDS011;18335;51.486;7.562;2023-07-20T14:27:49;3.40;;;1.35;;
31760;SDS011;18335;51.486;7.562;2023-07-20T14:30:17;1.83;;;1.20;;
31760;SDS011;18335;51.486;7.562;2023-07-20T14:32:45;2.67;;;1.20;;
31760;SDS011;18335;51.486;7.562;2023-07-20T14:35:12;2.38;;;1.20;;
31760;SDS011;18335;51.486;7.562;2023-07-20T14:37:39;3.30;;;1.33;;
31760;SDS011;18335;51.486;7.562;2023-07-20T14:40:06;2.08;;;1.17;;
31760;SDS011;18335;51.486;7.562;2023-07-20T14:42:34;1.65;;;1.05;;
31760;SDS011;18335;51.486;7.562;2023-07-20T14:45:01;1.38;;;1.00;;
31760;SDS011;18335;51.486;7.562;2023-07-20T14:47:28;1.75;;;1.05;;
31760;SDS011;18335;51.486;7.562;2023-07-20T14:49:58;2.72;;;1.00;;
31760;SDS011;18335;51.486;7.562;2023-07-20T14:52:25;2.38;;;1.20;;